Time;durP1;ratioP1;P1;durP2;ratioP2;P2;SDS_P1;SDS_P2;PMS_P1;PMS_P2;Temp;Humidity;BMP_temperature;BMP_pressure;BME280_temperature;BME280_humidity;BME280_pressure;Samples;Min_cycle;Max_cycle;Signal;HPM_P1;HPM_P2
2023/03/05 00:01:55;;;;;;;1.17;1.07;;;;;;;8.24;100.00;99758.59;5090086;28;20198;-75
2023/03/05 00:04:22;;;;;;;0.80;0.80;;;;;;;8.26;100.00;99754.34;5090306;28;20202;-75
2023/03/05 00:06:49;;;;;;;0.80;0.80;;;;;;;8.31;100.00;99760.47;5090171;28;20749;-75
2023/03/05 00:09:16;;;;;;;0.80;0.80;;;;;;;8.20;100.00;99738.75;5090723;28;20199;-76
2023/03/05 00:11:43;;;;;;;0.93;0.93;;;;;;;8.28;100.00;99744.94;5089868;28;20206;-75
2023/03/05 00:14:11;;;;;;;0.53;0.53;;;;;;;8.40;100.00;99760.66;5037354;28;20201;-74
2023/03/05 00:16:38;;;;;;;1.63;1.53;;;;;;;8.35;100.00;99764.88;5090152;28;20214;-75
2023/03/05 00:19:06;;;;;;;0.87;0.87;;;;;;;8.31;100.00;99742.41;5038269;28;20225;-75
2023/03/05 00:21:34;;;;;;;1.87;1.77;;;;;;;8.35;100.00;99738.16;5089604;28;20280;-74
2023/03/05 00:24:03;;;;;;;1.77;1.67;;;;;;;8.36;100.00;99745.94;5077210;28;20197;-76
2023/03/05 00:26:33;;;;;;;0.80;0.80;;;;;;;8.30;100.00;99748.44;5092217;28;20897;-74
2023/03/05 00:29:00;;;;;;;0.70;0.70;;;;;;;8.06;100.00;99716.97;5093561;28;20652;-74
2023/03/05 00:31:30;;;;;;;4.70;2.00;;;;;;;8.13;100.00;99725.69;5040762;28;20700;-75
2023/03/05 00:33:59;;;;;;;0.90;0.90;;;;;;;8.17;100.00;99737.81;5093019;28;20586;-75
2023/03/05 00:36:26;;;;;;;0.70;0.70;;;;;;;8.02;100.00;99712.56;5093204;28;20202;-75
2023/03/05 00:38:54;;;;;;;0.77;0.77;;;;;;;8.13;100.00;99725.69;5093437;28;20194;-75
2023/03/05 00:41:21;;;;;;;0.57;0.57;;;;;;;8.13;100.00;99725.69;5093151;28;20205;-75
2023/03/05 00:43:48;;;;;;;0.87;0.87;;;;;;;8.07;100.00;99721.25;5092943;28;20707;-75
2023/03/05 00:46:15;;;;;;;1.60;1.27;;;;;;;8.08;100.00;99720.44;5092673;28;20205;-74
2023/03/05 00:48:43;;;;;;;0.70;0.70;;;;;;;8.15;100.00;99708.50;5092315;28;20634;-75
2023/03/05 00:51:10;;;;;;;0.80;0.80;;;;;;;7.67;100.00;99659.41;5092606;28;20198;-75
2023/03/05 00:53:37;;;;;;;0.90;0.90;;;;;;;7.97;100.00;99721.94;5093011;28;20534;-75
2023/03/05 00:56:05;;;;;;;2.47;1.33;;;;;;;7.89;100.00;99708.88;5093167;28;20198;-74
2023/03/05 00:58:31;;;;;;;0.90;0.90;;;;;;;7.78;100.00;99702.63;5092576;28;20229;-77
2023/03/05 01:01:00;;;;;;;8.77;2.60;;;;;;;7.88;100.00;99708.84;5092385;28;20213;-74
2023/03/05 01:03:27;;;;;;;1.13;1.13;;;;;;;7.33;100.00;99630.34;5092660;28;20194;-75
2023/03/05 01:05:56;;;;;;;0.60;0.60;;;;;;;7.80;100.00;99695.78;5092568;28;20669;-75
2023/03/05 01:08:23;;;;;;;0.70;0.70;;;;;;;7.61;100.00;99667.88;5092774;28;20664;-75
2023/03/05 01:10:49;;;;;;;0.87;0.87;;;;;;;7.70;100.00;99695.59;5087631;28;20316;-75
2023/03/05 01:13:16;;;;;;;1.27;1.27;;;;;;;7.53;100.00;99658.25;5091235;28;20298;-76
2023/03/05 01:15:43;;;;;;;0.50;0.50;;;;;;;7.74;100.00;99692.22;5080414;28;20202;-75
2023/03/05 01:18:10;;;;;;;1.50;1.43;;;;;;;7.70;100.00;99672.38;5092130;28;20206;-75
2023/03/05 01:20:37;;;;;;;0.50;0.50;;;;;;;7.81;100.00;99692.34;5091836;28;20593;-76
2023/03/05 01:23:05;;;;;;;0.70;0.70;;;;;;;7.81;100.00;99681.19;5092297;28;20190;-75
2023/03/05 01:25:32;;;;;;;1.87;1.87;;;;;;;7.77;100.00;99674.22;5055434;28;20724;-75
2023/03/05 01:27:59;;;;;;;0.80;0.80;;;;;;;7.85;100.00;99694.16;5092600;28;20229;-75
2023/03/05 01:30:25;;;;;;;0.70;0.70;;;;;;;7.83;100.00;99701.00;5091899;28;20214;-75
2023/03/05 01:32:52;;;;;;;0.70;0.70;;;;;;;7.84;100.00;99687.28;5091731;28;20202;-76
2023/03/05 01:35:21;;;;;;;13.77;1.93;;;;;;;7.87;100.00;99694.19;5092244;28;20217;-75
2023/03/05 01:37:48;;;;;;;1.17;1.17;;;;;;;7.64;100.00;99674.81;5091991;28;20194;-75
2023/03/05 01:40:20;;;;;;;0.70;0.70;;;;;;;7.83;100.00;99684.66;5090917;28;20205;-75
2023/03/05 01:42:47;;;;;;;0.80;0.80;;;;;;;7.79;100.00;99688.00;5092005;28;20197;-74
2023/03/05 01:45:17;;;;;;;0.70;0.70;;;;;;;7.72;100.00;99670.66;5052645;28;20207;-75
2023/03/05 01:47:44;;;;;;;2.30;2.20;;;;;;;7.61;100.00;99662.72;5089772;28;20226;-74
2023/03/05 01:50:16;;;;;;;4.47;2.87;;;;;;;7.60;100.00;99660.13;5090984;28;20630;-74
2023/03/05 01:52:48;;;;;;;1.63;1.53;;;;;;;7.80;100.00;99695.78;5091459;28;20191;-75
2023/03/05 01:55:19;;;;;;;0.90;0.90;;;;;;;7.73;100.00;99687.91;5091164;28;20198;-74
2023/03/05 01:57:50;;;;;;;0.70;0.70;;;;;;;7.74;100.00;99679.31;5091305;28;21081;-74
2023/03/05 02:00:22;;;;;;;0.60;0.60;;;;;;;7.72;100.00;99693.88;5091132;28;20198;-74
2023/03/05 02:02:51;;;;;;;0.87;0.87;;;;;;;7.60;100.00;99679.03;5091871;28;20206;-75
2023/03/05 02:05:25;;;;;;;0.70;0.70;;;;;;;7.72;100.00;99696.47;5035602;28;20203;-74
2023/03/05 02:07:53;;;;;;;0.60;0.60;;;;;;;7.66;100.00;99686.03;5080545;28;20286;-75
2023/03/05 02:10:24;;;;;;;0.93;0.93;;;;;;;7.40;100.00;99647.69;5055266;28;20213;-74
2023/03/05 02:12:52;;;;;;;1.50;1.40;;;;;;;7.55;100.00;99677.22;5091703;28;20202;-75
2023/03/05 02:15:20;;;;;;;1.10;1.00;;;;;;;7.57;100.00;99691.00;5091447;28;20187;-75
2023/03/05 02:17:47;;;;;;;1.10;1.10;;;;;;;7.28;100.00;99646.53;5091560;28;20572;-74
2023/03/05 02:20:18;;;;;;;1.50;1.50;;;;;;;7.54;100.00;99690.94;5090452;28;20605;-75
2023/03/05 02:22:46;;;;;;;0.80;0.80;;;;;;;7.58;100.00;99693.63;5091249;28;20672;-75
2023/03/05 02:25:16;;;;;;;0.70;0.70;;;;;;;7.55;100.00;99695.25;5090920;28;20202;-76
2023/03/05 02:27:46;;;;;;;1.27;1.27;;;;;;;7.54;100.00;99696.97;5075800;28;20202;-75
2023/03/05 02:30:14;;;;;;;0.60;0.60;;;;;;;7.46;100.00;99699.38;5090475;28;20581;-76
2023/03/05 02:32:40;;;;;;;1.30;1.30;;;;;;;7.41;100.00;99703.59;5055133;28;20191;-76
2023/03/05 02:35:08;;;;;;;0.90;0.90;;;;;;;7.28;100.00;99693.84;5090954;28;20194;-76
2023/03/05 02:37:35;;;;;;;1.03;1.03;;;;;;;7.04;100.00;99652.06;5091195;28;20244;-75
2023/03/05 02:40:03;;;;;;;0.80;0.80;;;;;;;7.35;100.00;99706.03;5091159;28;20201;-75
2023/03/05 02:42:32;;;;;;;3.50;1.93;;;;;;;7.24;100.00;99712.66;5090341;28;20206;-74
2023/03/05 02:44:59;;;;;;;2.57;1.70;;;;;;;7.27;100.00;99707.59;5055302;28;20282;-75
2023/03/05 02:47:26;;;;;;;3.40;1.20;;;;;;;7.22;100.00;99713.47;5090521;28;20209;-75
2023/03/05 02:49:53;;;;;;;7.50;7.00;;;;;;;7.18;100.00;99715.09;5090741;28;20225;-76
2023/03/05 02:52:22;;;;;;;19.63;2.93;;;;;;;7.26;100.00;99715.28;5090457;28;20190;-75
2023/03/05 02:54:49;;;;;;;2.47;2.37;;;;;;;7.20;100.00;99716.03;5090580;28;20255;-74
2023/03/05 02:57:17;;;;;;;1.43;1.43;;;;;;;7.21;100.00;99709.13;5090408;28;20237;-74
2023/03/05 02:59:45;;;;;;;1.37;1.37;;;;;;;7.18;100.00;99709.94;5090517;28;20213;-76
2023/03/05 03:02:12;;;;;;;1.00;1.00;;;;;;;7.11;100.00;99705.47;5090603;28;20213;-76
2023/03/05 03:04:38;;;;;;;1.00;1.00;;;;;;;7.12;100.00;99707.22;5090492;28;20240;-75
2023/03/05 03:07:05;;;;;;;0.90;0.90;;;;;;;6.94;100.00;99691.34;5090422;28;20206;-74
2023/03/05 03:09:34;;;;;;;1.13;1.13;;;;;;;6.95;100.00;99677.63;5054594;28;20232;-77
2023/03/05 03:12:01;;;;;;;4.00;3.70;;;;;;;7.07;100.00;99713.97;5090256;28;20221;-75
2023/03/05 03:14:31;;;;;;;1.80;1.40;;;;;;;6.95;100.00;99685.38;5089964;28;20198;-75
2023/03/05 03:16:58;;;;;;;0.80;0.80;;;;;;;7.04;100.00;99701.03;5051368;28;20205;-75
2023/03/05 03:19:25;;;;;;;1.17;1.17;;;;;;;7.05;100.00;99710.50;5088992;28;20214;-75
2023/03/05 03:21:53;;;;;;;2.83;2.63;;;;;;;7.02;100.00;99707.88;5090444;28;20198;-76
2023/03/05 03:24:20;;;;;;;0.60;0.60;;;;;;;7.03;100.00;99696.69;5090663;28;20194;-76
2023/03/05 03:26:48;;;;;;;1.20;1.20;;;;;;;7.06;100.00;99696.78;5090521;28;20198;-76
2023/03/05 03:29:16;;;;;;;1.20;1.20;;;;;;;6.99;100.00;99679.44;5090521;28;20267;-76
2023/03/05 03:31:44;;;;;;;0.90;0.90;;;;;;;7.17;100.00;99694.47;5089902;28;20236;-75
2023/03/05 03:34:13;;;;;;;0.90;0.90;;;;;;;7.13;100.00;99692.66;5089986;28;20593;-75
2023/03/05 03:36:40;;;;;;;1.60;1.57;;;;;;;7.15;100.00;99694.41;5090281;28;20251;-76
2023/03/05 03:39:08;;;;;;;0.60;0.60;;;;;;;6.99;100.00;99675.13;5090005;28;20198;-76
2023/03/05 03:41:35;;;;;;;0.87;0.87;;;;;;;7.06;100.00;99696.78;5089899;28;20209;-75
2023/03/05 03:44:03;;;;;;;1.33;1.33;;;;;;;7.11;100.00;99689.16;5089425;28;20218;-75
2023/03/05 03:46:30;;;;;;;0.90;0.90;;;;;;;7.06;100.00;99676.19;5089905;28;20194;-75
2023/03/05 03:48:58;;;;;;;0.70;0.70;;;;;;;7.19;100.00;99698.81;5090083;28;20667;-75
2023/03/05 03:51:25;;;;;;;0.80;0.80;;;;;;;7.02;100.00;99671.78;5089474;28;20195;-75
2023/03/05 03:53:52;;;;;;;0.53;0.53;;;;;;;7.16;100.00;99696.16;5089563;28;20668;-75
2023/03/05 03:56:19;;;;;;;0.70;0.70;;;;;;;7.07;100.00;99677.88;5089857;28;20273;-75
2023/03/05 03:58:46;;;;;;;0.70;0.70;;;;;;;6.95;100.00;99662.19;5093478;28;20222;-76
2023/03/05 04:01:12;;;;;;;5.53;1.43;;;;;;;7.14;100.00;99692.66;5094134;28;20201;-75
2023/03/05 04:03:39;;;;;;;0.87;0.87;;;;;;;6.96;100.00;99659.63;5093866;28;20259;-76
2023/03/05 04:06:08;;;;;;;1.40;1.37;;;;;;;7.06;100.00;99671.03;5093658;28;20210;-76
2023/03/05 04:08:35;;;;;;;1.57;1.57;;;;;;;7.15;100.00;99706.41;5057450;28;20217;-76
2023/03/05 04:11:02;;;;;;;4.23;3.90;;;;;;;7.05;100.00;99696.75;5093813;28;20221;-76
2023/03/05 04:13:29;;;;;;;0.80;0.80;;;;;;;7.01;100.00;99697.50;5092787;28;20197;-76
2023/03/05 04:15:56;;;;;;;0.70;0.70;;;;;;;7.03;100.00;99690.69;5093543;28;20198;-76
2023/03/05 04:18:23;;;;;;;0.80;0.80;;;;;;;7.05;100.00;99695.03;5093569;28;20190;-75
2023/03/05 04:20:50;;;;;;;1.20;1.20;;;;;;;7.02;100.00;99699.25;5093329;28;20205;-76
2023/03/05 04:23:18;;;;;;;0.80;0.80;;;;;;;7.06;100.00;99696.78;5093730;28;20206;-77
2023/03/05 04:25:45;;;;;;;1.43;1.43;;;;;;;6.98;100.00;99695.75;5093414;28;20202;-77
2023/03/05 04:28:12;;;;;;;1.30;1.30;;;;;;;7.03;100.00;99691.53;5093387;28;20194;-75
2023/03/05 04:30:39;;;;;;;0.70;0.70;;;;;;;6.87;100.00;99674.88;5093338;28;20628;-76
2023/03/05 04:33:05;;;;;;;0.60;0.60;;;;;;;7.01;100.00;99698.38;5093073;28;20206;-76
2023/03/05 04:35:32;;;;;;;1.73;1.60;;;;;;;7.01;100.00;99688.06;5073265;28;20199;-75
2023/03/05 04:37:59;;;;;;;0.80;0.80;;;;;;;7.01;100.00;99690.66;5079184;28;20198;-75
2023/03/05 04:40:27;;;;;;;3.63;3.37;;;;;;;7.09;100.00;99691.69;5092877;28;20201;-76
2023/03/05 04:42:54;;;;;;;0.63;0.63;;;;;;;7.03;100.00;99690.69;5040921;28;20194;-76
2023/03/05 04:45:21;;;;;;;0.93;0.93;;;;;;;7.06;100.00;99694.22;5092907;28;20198;-76
2023/03/05 04:47:47;;;;;;;0.90;0.90;;;;;;;7.06;100.00;99693.34;5092629;28;20205;-76
2023/03/05 04:50:14;;;;;;;0.70;0.70;;;;;;;6.96;100.00;99674.19;5092726;28;20573;-75
2023/03/05 04:52:43;;;;;;;0.50;0.50;;;;;;;6.95;100.00;99675.94;5093084;28;20209;-76
2023/03/05 04:55:12;;;;;;;0.97;0.97;;;;;;;7.17;100.00;99704.78;5089766;28;20206;-76
2023/03/05 04:57:40;;;;;;;1.03;1.03;;;;;;;7.14;100.00;99694.34;5092946;28;20222;-76
2023/03/05 05:00:12;;;;;;;0.80;0.80;;;;;;;7.15;100.00;99704.72;5092909;28;20219;-76
2023/03/05 05:02:39;;;;;;;1.00;1.00;;;;;;;7.17;100.00;99705.63;5092850;28;20635;-76
2023/03/05 05:05:06;;;;;;;1.30;1.30;;;;;;;7.18;100.00;99703.91;5057099;28;20202;-76
2023/03/05 05:07:33;;;;;;;1.13;1.13;;;;;;;7.13;100.00;99714.16;5091602;28;20197;-76
2023/03/05 05:10:00;;;;;;;0.90;0.90;;;;;;;7.18;100.00;99697.06;5092654;28;20222;-76
2023/03/05 05:12:29;;;;;;;0.60;0.60;;;;;;;7.21;100.00;99717.75;5092799;28;20994;-76
2023/03/05 05:14:58;;;;;;;0.53;0.53;;;;;;;7.24;100.00;99704.91;5090323;28;20658;-73
2023/03/05 05:17:25;;;;;;;0.60;0.60;;;;;;;7.20;100.00;99713.44;5092393;28;20198;-74
2023/03/05 05:19:52;;;;;;;0.70;0.70;;;;;;;7.25;100.00;99724.72;5092326;28;20201;-75
2023/03/05 05:22:19;;;;;;;0.50;0.50;;;;;;;7.32;100.00;99726.59;5092058;28;20190;-75
2023/03/05 05:24:45;;;;;;;1.47;1.47;;;;;;;7.29;100.00;99711.06;5092629;28;20198;-75
2023/03/05 05:27:12;;;;;;;4.67;1.47;;;;;;;7.47;100.00;99726.94;5092179;28;20190;-76
2023/03/05 05:29:39;;;;;;;0.70;0.70;;;;;;;7.47;100.00;99726.94;5092222;28;20233;-75
2023/03/05 05:32:07;;;;;;;1.73;1.73;;;;;;;7.58;100.00;99716.84;5091915;28;20198;-78
2023/03/05 05:34:35;;;;;;;0.60;0.60;;;;;;;7.61;100.00;99739.25;5091171;28;20714;-76
2023/03/05 05:37:02;;;;;;;0.70;0.70;;;;;;;7.63;100.00;99728.13;5092193;28;20687;-78
2023/03/05 05:39:29;;;;;;;3.90;2.70;;;;;;;7.71;100.00;99741.16;5092223;28;20202;-76
2023/03/05 05:41:56;;;;;;;0.73;0.73;;;;;;;7.82;100.00;99745.72;5092077;28;20254;-76
2023/03/05 05:44:23;;;;;;;1.43;1.40;;;;;;;7.83;100.00;99741.44;5091637;28;20206;-77
2023/03/05 05:46:49;;;;;;;2.23;2.20;;;;;;;7.83;100.00;99731.09;5092191;28;20217;-76
2023/03/05 05:49:17;;;;;;;0.60;0.60;;;;;;;8.02;100.00;99722.03;5036837;28;20244;-78
2023/03/05 05:51:44;;;;;;;0.50;0.50;;;;;;;8.02;100.00;99742.69;5085364;28;20217;-74
2023/03/05 05:54:13;;;;;;;0.70;0.70;;;;;;;8.18;100.00;99743.00;5084636;28;20649;-75
2023/03/05 05:56:40;;;;;;;0.60;0.60;;;;;;;7.97;100.00;99711.59;5091165;28;20653;-76
2023/03/05 05:59:07;;;;;;;0.70;0.70;;;;;;;7.88;100.00;99719.19;5091979;28;20206;-77
2023/03/05 06:01:34;;;;;;;0.80;0.80;;;;;;;8.09;100.00;99740.25;5074781;28;20207;-76
2023/03/05 06:04:02;;;;;;;0.50;0.50;;;;;;;8.04;100.00;99733.22;5091178;28;20212;-77
2023/03/05 06:06:30;;;;;;;1.17;1.17;;;;;;;8.21;100.00;99748.19;5091522;28;20194;-77
2023/03/05 06:08:57;;;;;;;0.57;0.57;;;;;;;8.26;99.59;99750.88;5091419;28;20669;-76
2023/03/05 06:11:24;;;;;;;0.93;0.93;;;;;;;8.25;99.93;99741.38;5091240;28;20205;-76
2023/03/05 06:13:51;;;;;;;1.90;1.80;;;;;;;8.27;98.06;99735.44;5091642;28;20194;-76
2023/03/05 06:16:20;;;;;;;0.90;0.90;;;;;;;8.51;100.00;99741.91;5090601;28;20276;-77
2023/03/05 06:18:47;;;;;;;0.73;0.73;;;;;;;8.30;96.92;99720.03;5072271;28;20207;-75
2023/03/05 06:21:16;;;;;;;0.60;0.60;;;;;;;8.51;96.27;99739.31;5086735;28;20213;-78
2023/03/05 06:23:46;;;;;;;1.03;1.03;;;;;;;8.53;97.22;99754.00;5048238;28;20566;-76
2023/03/05 06:26:14;;;;;;;0.80;0.80;;;;;;;8.54;96.99;99760.03;5081090;28;20206;-75
2023/03/05 06:28:41;;;;;;;1.23;1.23;;;;;;;8.53;96.36;99755.69;5091144;28;20287;-75
2023/03/05 06:31:10;;;;;;;1.20;1.20;;;;;;;8.51;95.84;99758.28;5077501;28;20219;-77
2023/03/05 06:33:37;;;;;;;1.60;1.60;;;;;;;8.51;95.85;99758.28;5091070;28;20198;-75
2023/03/05 06:36:04;;;;;;;2.10;2.00;;;;;;;8.57;95.11;99742.88;5090403;28;20209;-75
2023/03/05 06:38:31;;;;;;;4.23;3.33;;;;;;;8.76;95.75;99773.38;5071684;28;20202;-75
2023/03/05 06:41:04;;;;;;;0.70;0.70;;;;;;;8.69;94.31;99739.63;5089750;28;20255;-74
2023/03/05 06:43:32;;;;;;;1.10;1.10;;;;;;;8.87;95.13;99770.97;5090259;28;20216;-73
2023/03/05 06:46:03;;;;;;;1.00;1.00;;;;;;;8.90;93.78;99771.00;5090580;28;20206;-75
2023/03/05 06:48:30;;;;;;;0.70;0.70;;;;;;;8.74;95.20;99758.69;5055392;28;20209;-76
2023/03/05 06:50:57;;;;;;;0.87;0.87;;;;;;;8.75;93.61;99750.94;5037833;28;20917;-76
2023/03/05 06:53:24;;;;;;;1.03;1.03;;;;;;;8.76;93.76;99769.91;5039739;28;20198;-76
2023/03/05 06:55:51;;;;;;;0.80;0.80;;;;;;;8.96;93.18;99778.84;5081803;28;20331;-77
2023/03/05 06:58:20;;;;;;;1.30;1.30;;;;;;;8.92;93.65;99769.31;5082613;28;20312;-77
2023/03/05 07:00:47;;;;;;;1.00;1.00;;;;;;;8.97;93.21;99778.03;5007937;28;20598;-77
2023/03/05 07:03:14;;;;;;;1.03;1.03;;;;;;;9.03;92.68;99777.22;5079774;28;20211;-76
2023/03/05 07:05:42;;;;;;;1.67;1.57;;;;;;;9.15;93.06;99778.31;5040568;28;20572;-76
2023/03/05 07:08:09;;;;;;;1.60;1.50;;;;;;;8.86;92.97;99743.38;5071453;28;20202;-75
2023/03/05 07:10:39;;;;;;;0.70;0.70;;;;;;;8.93;94.22;99781.41;5088621;28;20222;-78
2023/03/05 07:13:06;;;;;;;0.70;0.70;;;;;;;9.02;94.64;99776.41;5090496;28;20662;-77
2023/03/05 07:15:37;;;;;;;1.10;1.10;;;;;;;8.99;94.87;99775.47;5087599;28;20223;-76
2023/03/05 07:18:04;;;;;;;0.70;0.70;;;;;;;9.07;95.91;99782.50;5089868;28;20214;-75
2023/03/05 07:20:31;;;;;;;0.70;0.70;;;;;;;8.96;96.93;99776.28;5046442;28;20297;-77
2023/03/05 07:22:58;;;;;;;0.57;0.57;;;;;;;9.20;95.27;99784.44;5083882;28;20202;-77
2023/03/05 07:25:25;;;;;;;0.70;0.70;;;;;;;9.23;96.74;99784.50;5090135;28;20692;-75
2023/03/05 07:27:51;;;;;;;0.60;0.60;;;;;;;9.16;95.80;99782.66;5090484;28;20562;-78
2023/03/05 07:30:19;;;;;;;1.93;1.30;;;;;;;9.32;97.20;99782.03;5086730;28;20218;-78
2023/03/05 07:32:47;;;;;;;2.93;1.43;;;;;;;9.44;98.46;99781.34;5093750;28;20202;-77
2023/03/05 07:35:14;;;;;;;0.80;0.80;;;;;;;9.35;97.02;99756.19;5094565;28;20202;-79
2023/03/05 07:37:41;;;;;;;1.13;1.13;;;;;;;9.37;99.84;99780.38;5093359;28;20217;-76
2023/03/05 07:40:09;;;;;;;1.33;1.33;;;;;;;9.38;97.10;99766.59;5094360;28;20568;-77
2023/03/05 07:42:36;;;;;;;1.00;1.00;;;;;;;9.45;96.95;99771.00;5027928;28;20206;-75
2023/03/05 07:45:03;;;;;;;0.90;0.90;;;;;;;9.43;96.60;99753.72;5092442;28;20217;-75
2023/03/05 07:47:30;;;;;;;0.77;0.77;;;;;;;9.55;97.21;99750.44;5086651;28;20202;-76
2023/03/05 07:49:58;;;;;;;2.23;2.13;;;;;;;9.82;95.34;99767.19;5088866;28;20236;-78
2023/03/05 07:52:25;;;;;;;5.30;2.93;;;;;;;9.87;94.53;99768.16;5089939;28;21335;-79
2023/03/05 07:54:52;;;;;;;0.80;0.80;;;;;;;9.98;93.67;99760.50;5052291;28;20209;-75
2023/03/05 07:57:19;;;;;;;0.80;0.80;;;;;;;9.98;93.28;99765.69;5088620;28;20227;-79
2023/03/05 07:59:45;;;;;;;1.07;1.07;;;;;;;10.00;94.35;99751.03;5088444;28;20205;-76
2023/03/05 08:02:13;;;;;;;1.00;1.00;;;;;;;10.09;92.62;99750.28;5084546;28;20202;-79
2023/03/05 08:04:41;;;;;;;1.00;1.00;;;;;;;10.12;92.48;99751.19;5085331;28;20240;-76
2023/03/05 08:07:10;;;;;;;1.93;1.83;;;;;;;10.26;91.69;99754.81;5083912;28;20684;-76
2023/03/05 08:09:36;;;;;;;1.60;1.50;;;;;;;10.31;93.23;99755.72;5080827;28;20666;-78
2023/03/05 08:12:03;;;;;;;0.63;0.63;;;;;;;10.37;90.15;99754.94;5081826;28;20540;-80
2023/03/05 08:14:30;;;;;;;0.73;0.73;;;;;;;10.60;88.97;99757.72;5082905;28;20202;-80
2023/03/05 08:16:57;;;;;;;0.67;0.67;;;;;;;10.58;91.28;99749.97;5077535;28;20206;-75
2023/03/05 08:19:24;;;;;;;2.70;2.60;;;;;;;10.50;87.53;99758.50;5090543;28;20288;-78
2023/03/05 08:21:50;;;;;;;1.03;1.03;;;;;;;10.05;85.96;99710.50;5093100;28;20198;-80
2023/03/05 08:24:19;;;;;;;0.93;0.93;;;;;;;10.21;87.06;99753.88;5088795;28;20601;-81
2023/03/05 08:26:45;;;;;;;1.03;1.03;;;;;;;10.26;87.55;99757.41;5086906;28;20217;-81
2023/03/05 08:29:12;;;;;;;0.93;0.93;;;;;;;10.17;86.24;99752.13;5089868;28;20612;-79
2023/03/05 08:31:39;;;;;;;1.00;1.00;;;;;;;9.99;85.87;99719.94;5083122;28;20218;-80
2023/03/05 08:34:07;;;;;;;0.80;0.80;;;;;;;10.24;93.73;99747.84;5089833;28;20206;-80
2023/03/05 08:36:33;;;;;;;1.10;1.10;;;;;;;10.09;87.68;99722.66;5091415;28;20577;-81
2023/03/05 08:39:00;;;;;;;1.77;1.77;;;;;;;9.90;85.40;99705.16;5041420;28;20644;-80
2023/03/05 08:41:29;;;;;;;6.63;3.10;;;;;;;10.06;85.49;99732.94;5085252;28;20221;-79
2023/03/05 08:43:56;;;;;;;1.43;1.43;;;;;;;9.99;85.26;99738.91;5092506;28;20715;-79
2023/03/05 08:46:23;;;;;;;3.40;2.07;;;;;;;10.16;86.15;99724.50;5093232;28;20206;-79
2023/03/05 08:48:50;;;;;;;0.90;0.90;;;;;;;10.24;85.59;99716.78;5093329;28;20621;-79
2023/03/05 08:51:18;;;;;;;0.60;0.60;;;;;;;10.27;87.15;99709.91;5092476;28;20234;-78
2023/03/05 08:53:46;;;;;;;0.73;0.73;;;;;;;10.40;85.63;99724.75;5092690;28;20281;-76
2023/03/05 08:56:13;;;;;;;1.10;1.10;;;;;;;10.32;85.05;99704.78;5091138;28;20213;-77
2023/03/05 08:58:42;;;;;;;0.50;0.50;;;;;;;10.68;84.93;99719.78;5077674;28;20234;-75
2023/03/05 09:01:09;;;;;;;0.60;0.60;;;;;;;10.72;82.50;99724.16;5036606;28;20543;-77
2023/03/05 09:03:36;;;;;;;0.67;0.67;;;;;;;10.70;80.38;99698.19;5082818;28;20214;-75
2023/03/05 09:06:05;;;;;;;0.57;0.57;;;;;;;10.70;80.52;99707.72;5089388;28;20201;-75
2023/03/05 09:08:31;;;;;;;5.90;2.30;;;;;;;10.81;80.43;99716.44;5053936;28;20205;-76
2023/03/05 09:10:58;;;;;;;0.80;0.80;;;;;;;10.61;78.98;99697.25;5044124;28;20227;-74
2023/03/05 09:13:25;;;;;;;0.87;0.87;;;;;;;10.75;80.95;99714.69;5080908;28;20245;-74
2023/03/05 09:15:58;;;;;;;1.43;1.33;;;;;;;10.65;81.13;99696.44;5088610;28;20198;-74
2023/03/05 09:18:25;;;;;;;0.50;0.50;;;;;;;10.78;81.02;99706.03;5078233;28;20876;-76
2023/03/05 09:20:52;;;;;;;3.07;1.37;;;;;;;10.90;81.99;99713.94;5081510;28;20217;-72
2023/03/05 09:23:19;;;;;;;2.27;1.97;;;;;;;10.94;85.84;99707.91;5080000;28;20212;-73
2023/03/05 09:25:46;;;;;;;0.67;0.67;;;;;;;10.96;80.39;99713.97;5090026;28;20202;-75
2023/03/05 09:28:13;;;;;;;1.70;1.70;;;;;;;11.12;77.98;99696.81;5087392;28;20241;-75
2023/03/05 09:30:39;;;;;;;0.63;0.63;;;;;;;11.19;79.09;99699.44;5074884;28;20218;-74
2023/03/05 09:33:08;;;;;;;0.80;0.80;;;;;;;11.15;78.06;99708.06;5082762;28;20190;-75
2023/03/05 09:35:36;;;;;;;0.97;0.97;;;;;;;11.24;79.32;99686.47;5083424;28;20202;-72
2023/03/05 09:38:03;;;;;;;1.20;1.20;;;;;;;11.09;78.41;99674.31;5078580;28;20207;-78
2023/03/05 09:40:37;;;;;;;1.10;1.10;;;;;;;11.04;78.72;99688.97;5083816;28;20639;-75
2023/03/05 09:43:16;;;;;;;1.33;1.33;;;;;;;11.16;78.64;99668.28;5079332;28;20197;-74
2023/03/05 09:45:57;;;;;;;0.60;0.60;;;;;;;11.09;79.37;99669.13;5082877;28;20209;-77
2023/03/05 09:48:38;;;;;;;0.60;0.60;;;;;;;11.42;79.39;99671.88;5080754;28;20233;-76
2023/03/05 09:51:10;;;;;;;5.10;1.97;;;;;;;11.22;77.95;99637.19;5077946;28;20241;-74
2023/03/05 09:53:44;;;;;;;0.75;0.75;;;;;;;11.42;80.52;99651.09;5088070;28;20230;-75
2023/03/05 09:56:12;;;;;;;1.90;1.83;;;;;;;11.66;79.25;99655.56;5089731;28;20198;-74
2023/03/05 09:58:41;;;;;;;22.42;10.55;;;;;;;11.52;76.15;99658.97;5074647;28;20238;-74
2023/03/05 10:01:12;;;;;;;0.80;0.80;;;;;;;11.68;77.79;99648.63;5088246;28;20263;-76
2023/03/05 10:03:51;;;;;;;1.13;1.13;;;;;;;11.78;76.29;99628.78;5086890;28;20723;-77
2023/03/05 10:06:23;;;;;;;0.60;0.60;;;;;;;11.84;78.88;99644.41;5088917;28;20205;-72
2023/03/05 10:08:55;;;;;;;0.40;0.40;;;;;;;11.67;72.01;99636.50;5033399;28;20203;-74
2023/03/05 10:11:47;;;;;;;3.03;2.90;;;;;;;11.86;71.13;99637.47;5084822;28;20249;-72
2023/03/05 10:14:21;;;;;;;0.80;0.80;;;;;;;11.70;77.89;99635.66;5085555;28;20210;-75
2023/03/05 10:17:03;;;;;;;0.80;0.80;;;;;;;11.65;72.19;99611.41;5087954;28;20593;-79
2023/03/05 10:19:49;;;;;;;1.05;1.05;;;;;;;11.86;72.87;99611.47;5030423;28;20195;-76
2023/03/05 10:22:20;;;;;;;2.53;2.33;;;;;;;11.93;70.63;99616.69;5082682;28;20198;-79
2023/03/05 10:25:01;;;;;;;1.92;1.83;;;;;;;11.86;70.49;99612.34;5077349;28;20217;-74
2023/03/05 10:27:40;;;;;;;0.60;0.60;;;;;;;11.97;70.81;99612.38;5078219;28;20221;-78
2023/03/05 10:30:19;;;;;;;1.65;1.42;;;;;;;11.93;72.19;99603.72;5077618;28;20241;-80
2023/03/05 10:32:54;;;;;;;1.85;1.67;;;;;;;11.92;69.69;99601.97;5085442;28;20672;-74
2023/03/05 10:35:39;;;;;;;0.77;0.77;;;;;;;12.07;70.46;99592.47;5076854;28;20207;-76
2023/03/05 10:38:42;;;;;;;1.45;1.35;;;;;;;12.43;68.04;99589.88;5076504;28;20626;-78
2023/03/05 10:41:20;;;;;;;0.60;0.60;;;;;;;12.34;65.88;99590.72;5086730;28;20217;-77
2023/03/05 10:43:53;;;;;;;0.68;0.68;;;;;;;12.18;65.77;99563.03;5088398;28;20201;-79
2023/03/05 10:46:24;;;;;;;1.23;1.13;;;;;;;12.26;67.08;99578.63;5077970;28;20210;-78
2023/03/05 10:48:54;;;;;;;0.60;0.60;;;;;;;12.35;64.91;99589.88;5079552;28;20213;-80
2023/03/05 10:51:33;;;;;;;0.68;0.68;;;;;;;12.14;63.76;99581.22;5040684;28;20229;-76
2023/03/05 10:54:04;;;;;;;2.70;2.60;;;;;;;12.06;58.75;99581.19;5079663;28;20207;-77
2023/03/05 10:56:31;;;;;;;0.70;0.70;;;;;;;12.14;58.78;99576.88;5085726;28;20198;-78
2023/03/05 10:58:58;;;;;;;1.02;1.02;;;;;;;12.24;58.38;99565.63;5079945;28;20220;-75
2023/03/05 11:01:27;;;;;;;0.73;0.73;;;;;;;12.36;58.40;99564.75;5077933;28;20213;-77
2023/03/05 11:03:57;;;;;;;0.60;0.60;;;;;;;12.55;59.19;99574.28;5087881;28;20293;-74
2023/03/05 11:06:34;;;;;;;0.80;0.80;;;;;;;12.79;58.40;99562.97;5088176;28;20217;-77
2023/03/05 11:09:26;;;;;;;0.60;0.60;;;;;;;12.86;58.00;99564.66;5084953;28;20206;-76
2023/03/05 11:12:10;;;;;;;2.83;1.08;;;;;;;12.59;57.54;99549.97;4991978;28;20225;-78
2023/03/05 11:14:40;;;;;;;0.60;0.60;;;;;;;12.51;59.12;99556.06;4951660;28;20204;-78
2023/03/05 11:17:29;;;;;;;0.60;0.60;;;;;;;12.72;62.65;99546.50;4991371;28;20580;-73
2023/03/05 11:19:57;;;;;;;1.08;1.05;;;;;;;12.52;64.04;99539.63;4993817;28;20596;-75
2023/03/05 11:22:25;;;;;;;0.77;0.77;;;;;;;12.56;60.54;99516.19;4993641;28;20285;-75
2023/03/05 11:25:17;;;;;;;0.70;0.70;;;;;;;12.91;59.96;99519.53;4990039;28;20330;-81
2023/03/05 11:27:50;;;;;;;1.13;1.13;;;;;;;13.06;59.09;99521.22;4988949;28;20296;-79
2023/03/05 11:30:21;;;;;;;0.50;0.50;;;;;;;12.83;57.49;99445.00;4994460;28;20232;-79
2023/03/05 11:32:48;;;;;;;2.15;2.05;;;;;;;13.16;56.24;99522.94;4997605;28;20284;-77
2023/03/05 11:35:33;;;;;;;1.38;1.35;;;;;;;13.06;56.59;99521.22;4968055;28;20290;-79
2023/03/05 11:38:02;;;;;;;1.08;1.08;;;;;;;13.00;56.26;99509.97;4990621;28;20193;-76
2023/03/05 11:40:31;;;;;;;0.70;0.70;;;;;;;12.96;56.55;99508.25;4989729;28;20209;-79
2023/03/05 11:42:59;;;;;;;0.50;0.50;;;;;;;12.62;57.37;99426.91;4994399;28;20220;-78